sensor_id;sensor_type;location;lat;lon;timestamp;P1;durP1;ratioP1;P2;durP2;ratioP2
10365;SDS011;5229;41.820;23.490;2023-03-01T00:01:10;1.43;;;1.30;;
10365;SDS011;5229;41.820;23.490;2023-03-01T00:03:38;1.30;;;0.97;;
10365;SDS011;5229;41.820;23.490;2023-03-01T00:06:06;1.27;;;1.07;;
10365;SDS011;5229;41.820;23.490;2023-03-01T00:08:33;0.80;;;0.80;;
10365;SDS011;5229;41.820;23.490;2023-03-01T00:11:01;1.00;;;0.70;;
10365;SDS011;5229;41.820;23.490;2023-03-01T00:13:28;0.53;;;0.53;;
10365;SDS011;5229;41.820;23.490;2023-03-01T00:15:55;0.83;;;0.53;;
10365;SDS011;5229;41.820;23.490;2023-03-01T00:18:22;0.50;;;0.40;;
10365;SDS011;5229;41.820;23.490;2023-03-01T00:20:49;0.53;;;0.53;;
10365;SDS011;5229;41.820;23.490;2023-03-01T00:23:18;1.37;;;1.00;;
10365;SDS011;5229;41.820;23.490;2023-03-01T00:25:45;1.23;;;1.03;;
10365;SDS011;5229;41.820;23.490;2023-03-01T00:28:12;1.73;;;1.10;;
10365;SDS011;5229;41.820;23.490;2023-03-01T00:30:39;0.90;;;0.80;;
10365;SDS011;5229;41.820;23.490;2023-03-01T00:33:06;1.00;;;0.53;;
10365;SDS011;5229;41.820;23.490;2023-03-01T00:35:33;0.80;;;0.60;;
10365;SDS011;5229;41.820;23.490;2023-03-01T00:38:00;0.83;;;0.77;;
10365;SDS011;5229;41.820;23.490;2023-03-01T00:40:30;1.10;;;1.00;;
10365;SDS011;5229;41.820;23.490;2023-03-01T00:42:58;0.80;;;0.80;;
10365;SDS011;5229;41.820;23.490;2023-03-01T00:45:26;1.90;;;1.10;;
10365;SDS011;5229;41.820;23.490;2023-03-01T00:47:53;1.80;;;1.47;;
10365;SDS011;5229;41.820;23.490;2023-03-01T00:50:20;1.47;;;1.30;;
10365;SDS011;5229;41.820;23.490;2023-03-01T00:52:51;2.50;;;1.90;;
10365;SDS011;5229;41.820;23.490;2023-03-01T00:55:19;2.07;;;1.87;;
10365;SDS011;5229;41.820;23.490;2023-03-01T00:57:47;2.00;;;1.90;;
10365;SDS011;5229;41.820;23.490;2023-03-01T01:00:14;3.40;;;1.97;;
10365;SDS011;5229;41.820;23.490;2023-03-01T01:02:41;2.93;;;1.80;;
10365;SDS011;5229;41.820;23.490;2023-03-01T01:05:08;2.27;;;2.07;;
10365;SDS011;5229;41.820;23.490;2023-03-01T01:07:35;2.33;;;2.13;;
10365;SDS011;5229;41.820;23.490;2023-03-01T01:10:02;4.73;;;2.50;;
10365;SDS011;5229;41.820;23.490;2023-03-01T01:12:29;2.90;;;2.50;;
10365;SDS011;5229;41.820;23.490;2023-03-01T01:14:57;2.37;;;2.10;;
10365;SDS011;5229;41.820;23.490;2023-03-01T01:17:24;2.43;;;1.80;;
10365;SDS011;5229;41.820;23.490;2023-03-01T01:19:51;2.30;;;2.03;;
10365;SDS011;5229;41.820;23.490;2023-03-01T01:22:18;2.23;;;2.03;;
10365;SDS011;5229;41.820;23.490;2023-03-01T01:24:44;2.67;;;2.03;;
10365;SDS011;5229;41.820;23.490;2023-03-01T01:27:11;2.20;;;2.00;;
10365;SDS011;5229;41.820;23.490;2023-03-01T01:29:38;1.70;;;1.60;;
10365;SDS011;5229;41.820;23.490;2023-03-01T01:32:06;1.87;;;1.50;;
10365;SDS011;5229;41.820;23.490;2023-03-01T01:34:33;1.90;;;1.70;;
10365;SDS011;5229;41.820;23.490;2023-03-01T01:36:59;1.83;;;1.50;;
10365;SDS011;5229;41.820;23.490;2023-03-01T01:39:27;1.57;;;1.37;;
10365;SDS011;5229;41.820;23.490;2023-03-01T01:41:54;0.87;;;0.80;;
10365;SDS011;5229;41.820;23.490;2023-03-01T01:44:23;0.90;;;0.87;;
10365;SDS011;5229;41.820;23.490;2023-03-01T01:46:52;0.67;;;0.63;;
10365;SDS011;5229;41.820;23.490;2023-03-01T01:49:24;0.80;;;0.80;;
10365;SDS011;5229;41.820;23.490;2023-03-01T01:51:56;0.50;;;0.50;;
10365;SDS011;5229;41.820;23.490;2023-03-01T01:54:27;0.53;;;0.53;;
10365;SDS011;5229;41.820;23.490;2023-03-01T01:56:58;0.50;;;0.50;;
10365;SDS011;5229;41.820;23.490;2023-03-01T01:59:28;0.70;;;0.70;;
10365;SDS011;5229;41.820;23.490;2023-03-01T02:01:58;0.60;;;0.60;;
10365;SDS011;5229;41.820;23.490;2023-03-01T02:04:29;0.50;;;0.50;;
10365;SDS011;5229;41.820;23.490;2023-03-01T02:06:57;1.43;;;0.70;;
10365;SDS011;5229;41.820;23.490;2023-03-01T02:09:28;1.17;;;0.50;;
10365;SDS011;5229;41.820;23.490;2023-03-01T02:11:57;0.50;;;0.50;;
10365;SDS011;5229;41.820;23.490;2023-03-01T02:14:25;0.50;;;0.50;;
10365;SDS011;5229;41.820;23.490;2023-03-01T02:16:52;0.50;;;0.40;;
10365;SDS011;5229;41.820;23.490;2023-03-01T02:19:22;0.37;;;0.30;;
10365;SDS011;5229;41.820;23.490;2023-03-01T02:22:01;0.50;;;0.30;;
10365;SDS011;5229;41.820;23.490;2023-03-01T02:24:34;0.30;;;0.30;;
10365;SDS011;5229;41.820;23.490;2023-03-01T02:27:07;0.40;;;0.40;;
10365;SDS011;5229;41.820;23.490;2023-03-01T02:29:36;0.60;;;0.30;;
10365;SDS011;5229;41.820;23.490;2023-03-01T02:32:03;0.50;;;0.30;;
10365;SDS011;5229;41.820;23.490;2023-03-01T02:34:31;0.20;;;0.20;;
10365;SDS011;5229;41.820;23.490;2023-03-01T02:37:00;0.10;;;0.10;;
10365;SDS011;5229;41.820;23.490;2023-03-01T02:39:30;0.10;;;0.10;;
10365;SDS011;5229;41.820;23.490;2023-03-01T02:42:00;0.20;;;0.10;;
10365;SDS011;5229;41.820;23.490;2023-03-01T02:44:28;0.03;;;0.03;;
10365;SDS011;5229;41.820;23.490;2023-03-01T02:46:58;0.10;;;0.10;;
10365;SDS011;5229;41.820;23.490;2023-03-01T02:49:30;0.10;;;0.10;;
10365;SDS011;5229;41.820;23.490;2023-03-01T02:52:21;0.17;;;0.10;;
10365;SDS011;5229;41.820;23.490;2023-03-01T02:54:58;0.20;;;0.20;;
10365;SDS011;5229;41.820;23.490;2023-03-01T02:57:29;0.60;;;0.30;;
10365;SDS011;5229;41.820;23.490;2023-03-01T02:59:59;0.13;;;0.13;;
10365;SDS011;5229;41.820;23.490;2023-03-01T03:02:33;0.37;;;0.27;;
10365;SDS011;5229;41.820;23.490;2023-03-01T03:05:05;0.20;;;0.20;;
10365;SDS011;5229;41.820;23.490;2023-03-01T03:07:34;0.10;;;0.10;;
10365;SDS011;5229;41.820;23.490;2023-03-01T03:10:01;0.10;;;0.03;;
10365;SDS011;5229;41.820;23.490;2023-03-01T03:12:29;0.00;;;0.00;;
10365;SDS011;5229;41.820;23.490;2023-03-01T03:14:55;0.00;;;0.00;;
10365;SDS011;5229;41.820;23.490;2023-03-01T03:17:22;0.20;;;0.10;;
10365;SDS011;5229;41.820;23.490;2023-03-01T03:19:50;0.20;;;0.20;;
10365;SDS011;5229;41.820;23.490;2023-03-01T03:22:17;0.23;;;0.23;;
10365;SDS011;5229;41.820;23.490;2023-03-01T03:24:44;0.27;;;0.13;;
10365;SDS011;5229;41.820;23.490;2023-03-01T03:27:11;0.13;;;0.13;;
10365;SDS011;5229;41.820;23.490;2023-03-01T03:29:37;0.30;;;0.30;;
10365;SDS011;5229;41.820;23.490;2023-03-01T03:32:04;0.20;;;0.20;;
10365;SDS011;5229;41.820;23.490;2023-03-01T03:34:32;0.17;;;0.10;;
10365;SDS011;5229;41.820;23.490;2023-03-01T03:37:00;0.23;;;0.20;;
10365;SDS011;5229;41.820;23.490;2023-03-01T03:39:27;0.30;;;0.30;;
10365;SDS011;5229;41.820;23.490;2023-03-01T03:42:00;0.30;;;0.30;;
10365;SDS011;5229;41.820;23.490;2023-03-01T03:44:48;0.30;;;0.30;;
10365;SDS011;5229;41.820;23.490;2023-03-01T03:50:18;0.40;;;0.40;;
10365;SDS011;5229;41.820;23.490;2023-03-01T03:52:47;0.50;;;0.50;;
10365;SDS011;5229;41.820;23.490;2023-03-01T03:55:13;0.60;;;0.60;;
10365;SDS011;5229;41.820;23.490;2023-03-01T03:57:44;0.40;;;0.40;;
10365;SDS011;5229;41.820;23.490;2023-03-01T04:00:17;0.50;;;0.50;;
10365;SDS011;5229;41.820;23.490;2023-03-01T04:02:45;0.73;;;0.47;;
10365;SDS011;5229;41.820;23.490;2023-03-01T04:05:14;0.33;;;0.33;;
10365;SDS011;5229;41.820;23.490;2023-03-01T04:07:42;0.40;;;0.40;;
10365;SDS011;5229;41.820;23.490;2023-03-01T04:10:12;0.50;;;0.50;;
10365;SDS011;5229;41.820;23.490;2023-03-01T04:12:41;0.70;;;0.60;;
10365;SDS011;5229;41.820;23.490;2023-03-01T04:15:08;0.60;;;0.60;;
10365;SDS011;5229;41.820;23.490;2023-03-01T04:17:39;0.47;;;0.47;;
10365;SDS011;5229;41.820;23.490;2023-03-01T04:20:07;0.47;;;0.40;;
10365;SDS011;5229;41.820;23.490;2023-03-01T04:22:36;0.33;;;0.30;;
10365;SDS011;5229;41.820;23.490;2023-03-01T04:25:03;1.17;;;0.53;;
10365;SDS011;5229;41.820;23.490;2023-03-01T04:27:32;0.50;;;0.50;;
10365;SDS011;5229;41.820;23.490;2023-03-01T04:29:59;0.40;;;0.40;;
10365;SDS011;5229;41.820;23.490;2023-03-01T04:32:27;0.90;;;0.60;;
10365;SDS011;5229;41.820;23.490;2023-03-01T04:34:53;0.50;;;0.50;;
10365;SDS011;5229;41.820;23.490;2023-03-01T04:37:20;0.70;;;0.70;;
10365;SDS011;5229;41.820;23.490;2023-03-01T04:39:47;0.53;;;0.40;;
10365;SDS011;5229;41.820;23.490;2023-03-01T04:42:14;0.50;;;0.50;;
10365;SDS011;5229;41.820;23.490;2023-03-01T04:44:43;0.50;;;0.50;;
10365;SDS011;5229;41.820;23.490;2023-03-01T04:47:10;0.50;;;0.50;;
10365;SDS011;5229;41.820;23.490;2023-03-01T04:49:37;0.43;;;0.40;;
10365;SDS011;5229;41.820;23.490;2023-03-01T04:52:04;0.47;;;0.47;;
10365;SDS011;5229;41.820;23.490;2023-03-01T04:54:31;0.53;;;0.53;;
10365;SDS011;5229;41.820;23.490;2023-03-01T04:56:59;0.27;;;0.27;;
10365;SDS011;5229;41.820;23.490;2023-03-01T04:59:26;0.40;;;0.40;;
10365;SDS011;5229;41.820;23.490;2023-03-01T05:01:55;0.50;;;0.50;;
10365;SDS011;5229;41.820;23.490;2023-03-01T05:04:22;0.30;;;0.30;;
10365;SDS011;5229;41.820;23.490;2023-03-01T05:06:49;0.30;;;0.30;;
10365;SDS011;5229;41.820;23.490;2023-03-01T05:09:18;0.30;;;0.30;;
10365;SDS011;5229;41.820;23.490;2023-03-01T05:11:45;0.40;;;0.40;;
10365;SDS011;5229;41.820;23.490;2023-03-01T05:14:12;0.43;;;0.30;;
10365;SDS011;5229;41.820;23.490;2023-03-01T05:16:39;0.40;;;0.40;;
10365;SDS011;5229;41.820;23.490;2023-03-01T05:19:07;0.43;;;0.40;;
10365;SDS011;5229;41.820;23.490;2023-03-01T05:21:40;0.10;;;0.10;;
10365;SDS011;5229;41.820;23.490;2023-03-01T05:24:21;0.30;;;0.20;;
10365;SDS011;5229;41.820;23.490;2023-03-01T05:26:48;0.33;;;0.33;;
10365;SDS011;5229;41.820;23.490;2023-03-01T05:29:17;0.20;;;0.20;;
10365;SDS011;5229;41.820;23.490;2023-03-01T05:31:50;0.20;;;0.20;;
10365;SDS011;5229;41.820;23.490;2023-03-01T05:34:18;0.20;;;0.20;;
10365;SDS011;5229;41.820;23.490;2023-03-01T05:36:48;0.40;;;0.40;;
10365;SDS011;5229;41.820;23.490;2023-03-01T05:39:18;0.20;;;0.20;;
10365;SDS011;5229;41.820;23.490;2023-03-01T05:41:46;0.83;;;0.53;;
10365;SDS011;5229;41.820;23.490;2023-03-01T05:44:13;0.60;;;0.50;;
10365;SDS011;5229;41.820;23.490;2023-03-01T05:46:41;0.43;;;0.43;;
10365;SDS011;5229;41.820;23.490;2023-03-01T05:49:07;1.50;;;0.20;;
10365;SDS011;5229;41.820;23.490;2023-03-01T05:51:36;0.10;;;0.10;;
10365;SDS011;5229;41.820;23.490;2023-03-01T05:54:03;0.13;;;0.10;;
10365;SDS011;5229;41.820;23.490;2023-03-01T05:56:32;0.10;;;0.10;;
10365;SDS011;5229;41.820;23.490;2023-03-01T05:58:59;0.10;;;0.10;;
10365;SDS011;5229;41.820;23.490;2023-03-01T06:01:26;0.17;;;0.17;;
10365;SDS011;5229;41.820;23.490;2023-03-01T06:03:54;0.20;;;0.20;;
10365;SDS011;5229;41.820;23.490;2023-03-01T06:06:21;0.07;;;0.07;;
10365;SDS011;5229;41.820;23.490;2023-03-01T06:08:50;0.23;;;0.23;;
10365;SDS011;5229;41.820;23.490;2023-03-01T06:11:17;0.10;;;0.10;;
10365;SDS011;5229;41.820;23.490;2023-03-01T06:13:44;0.20;;;0.10;;
10365;SDS011;5229;41.820;23.490;2023-03-01T06:16:12;0.30;;;0.20;;
10365;SDS011;5229;41.820;23.490;2023-03-01T06:18:39;0.10;;;0.10;;
10365;SDS011;5229;41.820;23.490;2023-03-01T06:21:07;0.27;;;0.20;;
10365;SDS011;5229;41.820;23.490;2023-03-01T06:23:34;0.93;;;0.27;;
10365;SDS011;5229;41.820;23.490;2023-03-01T06:26:06;0.20;;;0.20;;
10365;SDS011;5229;41.820;23.490;2023-03-01T06:28:33;0.10;;;0.10;;
10365;SDS011;5229;41.820;23.490;2023-03-01T06:31:00;0.20;;;0.20;;
10365;SDS011;5229;41.820;23.490;2023-03-01T06:33:27;0.10;;;0.10;;
10365;SDS011;5229;41.820;23.490;2023-03-01T06:35:54;0.20;;;0.20;;
10365;SDS011;5229;41.820;23.490;2023-03-01T06:38:22;0.10;;;0.10;;
10365;SDS011;5229;41.820;23.490;2023-03-01T06:40:51;0.20;;;0.20;;
10365;SDS011;5229;41.820;23.490;2023-03-01T06:43:19;0.20;;;0.20;;
10365;SDS011;5229;41.820;23.490;2023-03-01T06:45:46;0.30;;;0.30;;
10365;SDS011;5229;41.820;23.490;2023-03-01T06:48:13;0.30;;;0.30;;
10365;SDS011;5229;41.820;23.490;2023-03-01T06:50:40;0.37;;;0.30;;
10365;SDS011;5229;41.820;23.490;2023-03-01T06:53:06;0.20;;;0.20;;
10365;SDS011;5229;41.820;23.490;2023-03-01T06:55:33;0.47;;;0.40;;
10365;SDS011;5229;41.820;23.490;2023-03-01T06:58:00;0.30;;;0.30;;
10365;SDS011;5229;41.820;23.490;2023-03-01T07:00:30;0.20;;;0.20;;
10365;SDS011;5229;41.820;23.490;2023-03-01T07:02:58;0.30;;;0.30;;
10365;SDS011;5229;41.820;23.490;2023-03-01T07:05:26;0.50;;;0.50;;
10365;SDS011;5229;41.820;23.490;2023-03-01T07:07:53;0.60;;;0.60;;
10365;SDS011;5229;41.820;23.490;2023-03-01T07:10:21;0.57;;;0.50;;
10365;SDS011;5229;41.820;23.490;2023-03-01T07:12:48;0.50;;;0.50;;
10365;SDS011;5229;41.820;23.490;2023-03-01T07:15:15;0.50;;;0.50;;
10365;SDS011;5229;41.820;23.490;2023-03-01T07:17:43;0.50;;;0.50;;
10365;SDS011;5229;41.820;23.490;2023-03-01T07:20:12;0.30;;;0.30;;
10365;SDS011;5229;41.820;23.490;2023-03-01T07:22:40;0.60;;;0.60;;
10365;SDS011;5229;41.820;23.490;2023-03-01T07:25:08;0.50;;;0.50;;
10365;SDS011;5229;41.820;23.490;2023-03-01T07:27:36;0.50;;;0.50;;
10365;SDS011;5229;41.820;23.490;2023-03-01T07:30:03;0.50;;;0.50;;
10365;SDS011;5229;41.820;23.490;2023-03-01T07:32:30;0.60;;;0.60;;
10365;SDS011;5229;41.820;23.490;2023-03-01T07:34:59;0.63;;;0.50;;
10365;SDS011;5229;41.820;23.490;2023-03-01T07:37:25;0.40;;;0.40;;
10365;SDS011;5229;41.820;23.490;2023-03-01T07:39:52;0.60;;;0.60;;
10365;SDS011;5229;41.820;23.490;2023-03-01T07:42:19;0.50;;;0.43;;
10365;SDS011;5229;41.820;23.490;2023-03-01T07:44:46;0.60;;;0.60;;
10365;SDS011;5229;41.820;23.490;2023-03-01T07:47:12;0.60;;;0.60;;
10365;SDS011;5229;41.820;23.490;2023-03-01T07:49:39;1.00;;;0.63;;
10365;SDS011;5229;41.820;23.490;2023-03-01T07:52:07;0.57;;;0.57;;
10365;SDS011;5229;41.820;23.490;2023-03-01T07:54:36;0.93;;;0.70;;
10365;SDS011;5229;41.820;23.490;2023-03-01T07:57:03;0.70;;;0.60;;
10365;SDS011;5229;41.820;23.490;2023-03-01T07:59:29;0.40;;;0.40;;
10365;SDS011;5229;41.820;23.490;2023-03-01T08:01:57;0.60;;;0.60;;
10365;SDS011;5229;41.820;23.490;2023-03-01T08:04:23;0.63;;;0.60;;
10365;SDS011;5229;41.820;23.490;2023-03-01T08:06:51;0.80;;;0.80;;
10365;SDS011;5229;41.820;23.490;2023-03-01T08:09:20;0.50;;;0.50;;
10365;SDS011;5229;41.820;23.490;2023-03-01T08:11:47;0.70;;;0.70;;
10365;SDS011;5229;41.820;23.490;2023-03-01T08:14:14;1.13;;;0.90;;
10365;SDS011;5229;41.820;23.490;2023-03-01T08:16:41;0.57;;;0.57;;
10365;SDS011;5229;41.820;23.490;2023-03-01T08:19:09;0.70;;;0.70;;
10365;SDS011;5229;41.820;23.490;2023-03-01T08:21:37;0.80;;;0.80;;
10365;SDS011;5229;41.820;23.490;2023-03-01T08:24:04;0.67;;;0.67;;
10365;SDS011;5229;41.820;23.490;2023-03-01T08:26:34;0.73;;;0.67;;
10365;SDS011;5229;41.820;23.490;2023-03-01T08:29:00;1.90;;;0.83;;
10365;SDS011;5229;41.820;23.490;2023-03-01T08:31:29;0.73;;;0.73;;
10365;SDS011;5229;41.820;23.490;2023-03-01T08:33:59;1.10;;;0.87;;
10365;SDS011;5229;41.820;23.490;2023-03-01T08:36:28;0.80;;;0.80;;
10365;SDS011;5229;41.820;23.490;2023-03-01T08:38:56;1.10;;;1.00;;
10365;SDS011;5229;41.820;23.490;2023-03-01T08:41:22;1.23;;;1.13;;
10365;SDS011;5229;41.820;23.490;2023-03-01T08:43:52;1.03;;;0.90;;
10365;SDS011;5229;41.820;23.490;2023-03-01T08:46:23;3.83;;;2.83;;
10365;SDS011;5229;41.820;23.490;2023-03-01T08:48:50;6.07;;;4.07;;
10365;SDS011;5229;41.820;23.490;2023-03-01T08:51:18;3.70;;;2.70;;
10365;SDS011;5229;41.820;23.490;2023-03-01T08:53:46;5.63;;;4.47;;
10365;SDS011;5229;41.820;23.490;2023-03-01T08:56:13;22.47;;;19.93;;
10365;SDS011;5229;41.820;23.490;2023-03-01T08:58:43;8.13;;;6.53;;
10365;SDS011;5229;41.820;23.490;2023-03-01T09:01:12;3.47;;;3.10;;
10365;SDS011;5229;41.820;23.490;2023-03-01T09:03:41;3.77;;;3.37;;
10365;SDS011;5229;41.820;23.490;2023-03-01T09:06:09;3.43;;;2.60;;
10365;SDS011;5229;41.820;23.490;2023-03-01T09:08:36;2.50;;;2.30;;
10365;SDS011;5229;41.820;23.490;2023-03-01T09:11:05;2.70;;;2.20;;
10365;SDS011;5229;41.820;23.490;2023-03-01T09:13:33;2.20;;;1.93;;
10365;SDS011;5229;41.820;23.490;2023-03-01T09:16:02;3.00;;;2.70;;
10365;SDS011;5229;41.820;23.490;2023-03-01T09:18:32;3.03;;;2.70;;
10365;SDS011;5229;41.820;23.490;2023-03-01T09:21:02;3.63;;;3.27;;
10365;SDS011;5229;41.820;23.490;2023-03-01T09:23:32;5.33;;;4.50;;
10365;SDS011;5229;41.820;23.490;2023-03-01T09:26:01;4.17;;;2.80;;
10365;SDS011;5229;41.820;23.490;2023-03-01T09:28:28;3.73;;;2.83;;
10365;SDS011;5229;41.820;23.490;2023-03-01T09:30:57;5.53;;;3.30;;
10365;SDS011;5229;41.820;23.490;2023-03-01T09:33:24;6.30;;;5.70;;
10365;SDS011;5229;41.820;23.490;2023-03-01T09:35:56;5.83;;;5.00;;
10365;SDS011;5229;41.820;23.490;2023-03-01T09:38:23;5.90;;;3.40;;
10365;SDS011;5229;41.820;23.490;2023-03-01T09:40:50;4.77;;;4.03;;
10365;SDS011;5229;41.820;23.490;2023-03-01T09:43:19;4.67;;;3.47;;
10365;SDS011;5229;41.820;23.490;2023-03-01T09:45:53;4.63;;;3.97;;
10365;SDS011;5229;41.820;23.490;2023-03-01T09:48:23;4.63;;;3.83;;
10365;SDS011;5229;41.820;23.490;2023-03-01T09:50:52;4.00;;;3.60;;
10365;SDS011;5229;41.820;23.490;2023-03-01T09:53:21;5.63;;;5.03;;
10365;SDS011;5229;41.820;23.490;2023-03-01T09:55:51;5.93;;;4.83;;
10365;SDS011;5229;41.820;23.490;2023-03-01T09:58:29;7.83;;;5.83;;
10365;SDS011;5229;41.820;23.490;2023-03-01T10:01:05;7.93;;;5.83;;
10365;SDS011;5229;41.820;23.490;2023-03-01T10:03:51;10.63;;;6.57;;
10365;SDS011;5229;41.820;23.490;2023-03-01T10:06:31;7.87;;;6.60;;
10365;SDS011;5229;41.820;23.490;2023-03-01T10:09:00;8.23;;;6.30;;
10365;SDS011;5229;41.820;23.490;2023-03-01T10:11:32;8.03;;;5.50;;
10365;SDS011;5229;41.820;23.490;2023-03-01T10:14:03;6.87;;;5.77;;
10365;SDS011;5229;41.820;23.490;2023-03-01T10:16:36;6.13;;;5.07;;
10365;SDS011;5229;41.820;23.490;2023-03-01T10:19:09;7.23;;;5.10;;
10365;SDS011;5229;41.820;23.490;2023-03-01T10:21:41;8.60;;;5.00;;
10365;SDS011;5229;41.820;23.490;2023-03-01T10:24:14;5.57;;;5.00;;
10365;SDS011;5229;41.820;23.490;2023-03-01T10:26:47;6.47;;;5.30;;
10365;SDS011;5229;41.820;23.490;2023-03-01T10:29:19;5.73;;;5.13;;
10365;SDS011;5229;41.820;23.490;2023-03-01T10:31:50;7.93;;;4.23;;
10365;SDS011;5229;41.820;23.490;2023-03-01T10:34:20;4.23;;;3.67;;
10365;SDS011;5229;41.820;23.490;2023-03-01T10:36:48;5.73;;;3.77;;
10365;SDS011;5229;41.820;23.490;2023-03-01T10:39:19;4.10;;;3.70;;
10365;SDS011;5229;41.820;23.490;2023-03-01T10:41:55;4.87;;;3.50;;
10365;SDS011;5229;41.820;23.490;2023-03-01T10:44:37;3.77;;;2.90;;
10365;SDS011;5229;41.820;23.490;2023-03-01T10:47:13;3.27;;;2.80;;
10365;SDS011;5229;41.820;23.490;2023-03-01T10:49:58;3.40;;;3.10;;
10365;SDS011;5229;41.820;23.490;2023-03-01T10:52:28;2.53;;;2.20;;
10365;SDS011;5229;41.820;23.490;2023-03-01T10:54:59;2.70;;;2.50;;
10365;SDS011;5229;41.820;23.490;2023-03-01T10:57:34;3.00;;;2.70;;
10365;SDS011;5229;41.820;23.490;2023-03-01T11:03:04;2.80;;;2.50;;
10365;SDS011;5229;41.820;23.490;2023-03-01T11:05:39;4.13;;;3.33;;
10365;SDS011;5229;41.820;23.490;2023-03-01T11:08:28;4.10;;;3.10;;
10365;SDS011;5229;41.820;23.490;2023-03-01T11:11:18;2.57;;;2.37;;
10365;SDS011;5229;41.820;23.490;2023-03-01T11:13:53;3.27;;;2.60;;
10365;SDS011;5229;41.820;23.490;2023-03-01T11:16:25;4.63;;;3.23;;
10365;SDS011;5229;41.820;23.490;2023-03-01T11:19:13;12.17;;;8.70;;
10365;SDS011;5229;41.820;23.490;2023-03-01T11:21:43;5.60;;;4.80;;
10365;SDS011;5229;41.820;23.490;2023-03-01T11:24:17;4.50;;;2.90;;
10365;SDS011;5229;41.820;23.490;2023-03-01T11:26:47;2.47;;;2.23;;
10365;SDS011;5229;41.820;23.490;2023-03-01T11:29:21;2.87;;;2.50;;
10365;SDS011;5229;41.820;23.490;2023-03-01T11:31:54;2.53;;;2.33;;
10365;SDS011;5229;41.820;23.490;2023-03-01T11:34:34;2.43;;;2.23;;
10365;SDS011;5229;41.820;23.490;2023-03-01T11:37:16;2.70;;;2.50;;
10365;SDS011;5229;41.820;23.490;2023-03-01T11:39:58;3.13;;;2.30;;
10365;SDS011;5229;41.820;23.490;2023-03-01T11:42:35;2.30;;;2.10;;
10365;SDS011;5229;41.820;23.490;2023-03-01T11:45:23;2.73;;;2.30;;
10365;SDS011;5229;41.820;23.490;2023-03-01T11:47:59;2.17;;;1.97;;
10365;SDS011;5229;41.820;23.490;2023-03-01T11:50:39;2.30;;;2.10;;
10365;SDS011;5229;41.820;23.490;2023-03-01T11:56:15;2.40;;;2.20;;
10365;SDS011;5229;41.820;23.490;2023-03-01T11:59:04;2.17;;;2.00;;
10365;SDS011;5229;41.820;23.490;2023-03-01T12:01:58;2.73;;;2.53;;
10365;SDS011;5229;41.820;23.490;2023-03-01T12:04:50;2.10;;;1.83;;
10365;SDS011;5229;41.820;23.490;2023-03-01T12:07:41;5.07;;;2.20;;
10365;SDS011;5229;41.820;23.490;2023-03-01T12:10:25;2.20;;;2.00;;
10365;SDS011;5229;41.820;23.490;2023-03-01T12:13:01;2.60;;;2.33;;
10365;SDS011;5229;41.820;23.490;2023-03-01T12:15:44;3.00;;;2.10;;
10365;SDS011;5229;41.820;23.490;2023-03-01T12:18:33;2.27;;;1.93;;
10365;SDS011;5229;41.820;23.490;2023-03-01T12:21:17;2.10;;;1.90;;
10365;SDS011;5229;41.820;23.490;2023-03-01T12:24:06;3.07;;;2.77;;
10365;SDS011;5229;41.820;23.490;2023-03-01T12:26:51;3.03;;;2.47;;
10365;SDS011;5229;41.820;23.490;2023-03-01T12:29:29;4.03;;;2.33;;
10365;SDS011;5229;41.820;23.490;2023-03-01T12:32:03;2.97;;;2.77;;
10365;SDS011;5229;41.820;23.490;2023-03-01T12:34:53;3.13;;;2.33;;
10365;SDS011;5229;41.820;23.490;2023-03-01T12:37:44;3.70;;;2.20;;
10365;SDS011;5229;41.820;23.490;2023-03-01T12:40:23;3.60;;;2.70;;
10365;SDS011;5229;41.820;23.490;2023-03-01T12:43:15;3.30;;;2.57;;
10365;SDS011;5229;41.820;23.490;2023-03-01T12:46:10;3.13;;;2.83;;
10365;SDS011;5229;41.820;23.490;2023-03-01T12:48:49;3.43;;;2.83;;
10365;SDS011;5229;41.820;23.490;2023-03-01T12:51:23;2.20;;;1.97;;
10365;SDS011;5229;41.820;23.490;2023-03-01T12:53:53;3.80;;;2.67;;
10365;SDS011;5229;41.820;23.490;2023-03-01T12:56:22;5.07;;;4.33;;
10365;SDS011;5229;41.820;23.490;2023-03-01T12:58:54;3.60;;;3.07;;
10365;SDS011;5229;41.820;23.490;2023-03-01T13:01:36;5.00;;;3.80;;
10365;SDS011;5229;41.820;23.490;2023-03-01T13:04:18;6.27;;;3.80;;
10365;SDS011;5229;41.820;23.490;2023-03-01T13:07:04;7.53;;;5.00;;
10365;SDS011;5229;41.820;23.490;2023-03-01T13:09:44;5.57;;;4.03;;
10365;SDS011;5229;41.820;23.490;2023-03-01T13:15:24;6.30;;;4.70;;
10365;SDS011;5229;41.820;23.490;2023-03-01T13:17:53;7.70;;;5.83;;
10365;SDS011;5229;41.820;23.490;2023-03-01T13:20:23;9.23;;;4.37;;
10365;SDS011;5229;41.820;23.490;2023-03-01T13:23:01;14.83;;;9.27;;
10365;SDS011;5229;41.820;23.490;2023-03-01T13:25:34;9.73;;;5.17;;
10365;SDS011;5229;41.820;23.490;2023-03-01T13:34:42;17.07;;;9.37;;
10365;SDS011;5229;41.820;23.490;2023-03-01T13:37:24;6.13;;;4.27;;
10365;SDS011;5229;41.820;23.490;2023-03-01T13:45:56;7.47;;;5.07;;
10365;SDS011;5229;41.820;23.490;2023-03-01T13:48:25;6.37;;;4.17;;
10365;SDS011;5229;41.820;23.490;2023-03-01T13:50:54;5.50;;;4.10;;
10365;SDS011;5229;41.820;23.490;2023-03-01T13:53:25;4.60;;;4.20;;
10365;SDS011;5229;41.820;23.490;2023-03-01T13:55:57;8.77;;;7.07;;
10365;SDS011;5229;41.820;23.490;2023-03-01T13:58:27;6.47;;;4.87;;
10365;SDS011;5229;41.820;23.490;2023-03-01T14:00:56;5.53;;;4.53;;
10365;SDS011;5229;41.820;23.490;2023-03-01T14:03:25;8.17;;;5.00;;
10365;SDS011;5229;41.820;23.490;2023-03-01T14:06:00;5.97;;;5.03;;
10365;SDS011;5229;41.820;23.490;2023-03-01T14:08:33;8.80;;;6.20;;
10365;SDS011;5229;41.820;23.490;2023-03-01T14:17:05;23.17;;;15.70;;
10365;SDS011;5229;41.820;23.490;2023-03-01T14:19:41;27.30;;;17.00;;
10365;SDS011;5229;41.820;23.490;2023-03-01T14:22:13;17.00;;;13.03;;
10365;SDS011;5229;41.820;23.490;2023-03-01T14:24:50;11.43;;;8.50;;
10365;SDS011;5229;41.820;23.490;2023-03-01T14:27:19;9.03;;;7.13;;
10365;SDS011;5229;41.820;23.490;2023-03-01T14:29:53;16.20;;;12.20;;
10365;SDS011;5229;41.820;23.490;2023-03-01T14:32:24;51.63;;;35.53;;
10365;SDS011;5229;41.820;23.490;2023-03-01T14:34:52;45.03;;;31.13;;
10365;SDS011;5229;41.820;23.490;2023-03-01T14:37:20;14.40;;;11.70;;
10365;SDS011;5229;41.820;23.490;2023-03-01T14:39:50;25.77;;;19.80;;
10365;SDS011;5229;41.820;23.490;2023-03-01T14:42:17;27.73;;;20.23;;
10365;SDS011;5229;41.820;23.490;2023-03-01T14:44:47;27.23;;;19.90;;
10365;SDS011;5229;41.820;23.490;2023-03-01T14:47:20;30.17;;;21.60;;
10365;SDS011;5229;41.820;23.490;2023-03-01T14:49:54;37.83;;;27.73;;
10365;SDS011;5229;41.820;23.490;2023-03-01T14:52:26;16.50;;;13.07;;
10365;SDS011;5229;41.820;23.490;2023-03-01T14:55:01;10.23;;;8.47;;
10365;SDS011;5229;41.820;23.490;2023-03-01T14:57:31;12.27;;;10.97;;
10365;SDS011;5229;41.820;23.490;2023-03-01T14:59:58;23.90;;;16.57;;
10365;SDS011;5229;41.820;23.490;2023-03-01T15:02:30;8.90;;;7.83;;
10365;SDS011;5229;41.820;23.490;2023-03-01T15:05:00;8.57;;;7.17;;
10365;SDS011;5229;41.820;23.490;2023-03-01T15:07:29;9.97;;;8.97;;
10365;SDS011;5229;41.820;23.490;2023-03-01T15:09:58;7.77;;;6.97;;
10365;SDS011;5229;41.820;23.490;2023-03-01T15:12:38;7.87;;;5.50;;
10365;SDS011;5229;41.820;23.490;2023-03-01T15:15:22;6.30;;;5.30;;
10365;SDS011;5229;41.820;23.490;2023-03-01T15:17:58;6.40;;;5.40;;
10365;SDS011;5229;41.820;23.490;2023-03-01T15:20:27;6.53;;;5.33;;
10365;SDS011;5229;41.820;23.490;2023-03-01T15:22:57;5.73;;;5.00;;
10365;SDS011;5229;41.820;23.490;2023-03-01T15:25:27;6.53;;;5.43;;
10365;SDS011;5229;41.820;23.490;2023-03-01T15:27:56;6.47;;;5.50;;
10365;SDS011;5229;41.820;23.490;2023-03-01T15:30:25;12.30;;;5.73;;
10365;SDS011;5229;41.820;23.490;2023-03-01T15:35:45;6.67;;;5.47;;
10365;SDS011;5229;41.820;23.490;2023-03-01T15:38:24;6.50;;;5.10;;
10365;SDS011;5229;41.820;23.490;2023-03-01T15:40:55;8.97;;;5.70;;